sensor_id;sensor_type;location;lat;lon;timestamp;temperature;humidity
77056;SHT30;67471;44.918;8.614;2024-02-15T00:02:02;8.70;73.95
77056;SHT30;67471;44.918;8.614;2024-02-15T00:05:06;8.39;74.79
77056;SHT30;67471;44.918;8.614;2024-02-15T00:08:11;8.35;75.51
77056;SHT30;67471;44.918;8.614;2024-02-15T00:11:14;8.36;75.63
77056;SHT30;67471;44.918;8.614;2024-02-15T00:14:18;8.26;75.82
77056;SHT30;67471;44.918;8.614;2024-02-15T00:17:22;8.26;75.99
77056;SHT30;67471;44.918;8.614;2024-02-15T00:20:25;8.24;76.05
77056;SHT30;67471;44.918;8.614;2024-02-15T00:23:28;8.26;75.28
77056;SHT30;67471;44.918;8.614;2024-02-15T00:26:31;8.19;74.97
77056;SHT30;67471;44.918;8.614;2024-02-15T00:29:35;8.29;74.44
77056;SHT30;67471;44.918;8.614;2024-02-15T00:32:38;8.33;74.03
77056;SHT30;67471;44.918;8.614;2024-02-15T00:35:42;8.32;74.17
77056;SHT30;67471;44.918;8.614;2024-02-15T00:38:46;8.36;73.96
77056;SHT30;67471;44.918;8.614;2024-02-15T00:41:49;8.19;74.17
77056;SHT30;67471;44.918;8.614;2024-02-15T00:44:53;8.19;74.21
77056;SHT30;67471;44.918;8.614;2024-02-15T00:47:57;8.03;74.47
77056;SHT30;67471;44.918;8.614;2024-02-15T00:51:01;8.09;74.19
77056;SHT30;67471;44.918;8.614;2024-02-15T00:54:04;8.02;74.40
77056;SHT30;67471;44.918;8.614;2024-02-15T00:57:08;7.88;74.40
77056;SHT30;67471;44.918;8.614;2024-02-15T01:00:11;7.95;74.34
77056;SHT30;67471;44.918;8.614;2024-02-15T01:03:16;7.87;74.73
77056;SHT30;67471;44.918;8.614;2024-02-15T01:06:19;7.87;74.48
77056;SHT30;67471;44.918;8.614;2024-02-15T01:09:22;7.84;74.75
77056;SHT30;67471;44.918;8.614;2024-02-15T01:12:26;7.80;74.69
77056;SHT30;67471;44.918;8.614;2024-02-15T01:15:30;7.78;74.75
77056;SHT30;67471;44.918;8.614;2024-02-15T01:18:34;7.77;74.82
77056;SHT30;67471;44.918;8.614;2024-02-15T01:21:38;7.88;74.29
77056;SHT30;67471;44.918;8.614;2024-02-15T01:24:41;7.94;74.23
77056;SHT30;67471;44.918;8.614;2024-02-15T01:27:45;7.84;74.21
77056;SHT30;67471;44.918;8.614;2024-02-15T01:30:48;7.80;74.22
77056;SHT30;67471;44.918;8.614;2024-02-15T01:33:52;7.70;74.86
77056;SHT30;67471;44.918;8.614;2024-02-15T01:36:55;7.82;74.49
77056;SHT30;67471;44.918;8.614;2024-02-15T01:39:59;7.81;74.39
77056;SHT30;67471;44.918;8.614;2024-02-15T01:43:03;7.82;74.23
77056;SHT30;67471;44.918;8.614;2024-02-15T01:46:10;7.74;74.32
77056;SHT30;67471;44.918;8.614;2024-02-15T01:49:13;7.66;74.08
77056;SHT30;67471;44.918;8.614;2024-02-15T01:52:18;7.71;74.09
77056;SHT30;67471;44.918;8.614;2024-02-15T01:55:22;7.67;74.35
77056;SHT30;67471;44.918;8.614;2024-02-15T01:58:26;7.67;74.24
77056;SHT30;67471;44.918;8.614;2024-02-15T02:01:31;7.74;73.67
77056;SHT30;67471;44.918;8.614;2024-02-15T02:04:37;7.75;73.37
77056;SHT30;67471;44.918;8.614;2024-02-15T02:07:42;7.60;73.57
77056;SHT30;67471;44.918;8.614;2024-02-15T02:10:45;7.43;73.89
77056;SHT30;67471;44.918;8.614;2024-02-15T02:13:49;7.39;73.86
77056;SHT30;67471;44.918;8.614;2024-02-15T02:16:55;7.30;74.49
77056;SHT30;67471;44.918;8.614;2024-02-15T02:19:58;7.34;74.46
77056;SHT30;67471;44.918;8.614;2024-02-15T02:23:11;7.33;74.60
77056;SHT30;67471;44.918;8.614;2024-02-15T02:26:16;7.37;74.36
77056;SHT30;67471;44.918;8.614;2024-02-15T02:29:20;7.30;74.58
77056;SHT30;67471;44.918;8.614;2024-02-15T02:32:23;7.30;74.71
77056;SHT30;67471;44.918;8.614;2024-02-15T02:35:27;7.29;74.84
77056;SHT30;67471;44.918;8.614;2024-02-15T02:38:32;7.30;74.80
77056;SHT30;67471;44.918;8.614;2024-02-15T02:41:36;7.30;74.97
77056;SHT30;67471;44.918;8.614;2024-02-15T02:44:39;7.34;74.38
77056;SHT30;67471;44.918;8.614;2024-02-15T02:47:43;7.23;74.56
77056;SHT30;67471;44.918;8.614;2024-02-15T02:50:47;7.24;74.53
77056;SHT30;67471;44.918;8.614;2024-02-15T02:53:50;7.16;75.16
77056;SHT30;67471;44.918;8.614;2024-02-15T02:56:53;7.23;74.80
77056;SHT30;67471;44.918;8.614;2024-02-15T02:59:57;7.23;74.70
77056;SHT30;67471;44.918;8.614;2024-02-15T03:03:01;7.12;75.08
77056;SHT30;67471;44.918;8.614;2024-02-15T03:06:04;7.16;74.91
77056;SHT30;67471;44.918;8.614;2024-02-15T03:09:07;7.16;75.27
77056;SHT30;67471;44.918;8.614;2024-02-15T03:12:13;7.10;75.12
77056;SHT30;67471;44.918;8.614;2024-02-15T03:15:16;7.02;75.29
77056;SHT30;67471;44.918;8.614;2024-02-15T03:18:21;7.05;75.09
77056;SHT30;67471;44.918;8.614;2024-02-15T03:21:26;6.96;75.03
77056;SHT30;67471;44.918;8.614;2024-02-15T03:24:29;6.89;75.17
77056;SHT30;67471;44.918;8.614;2024-02-15T03:27:36;6.84;75.44
77056;SHT30;67471;44.918;8.614;2024-02-15T03:30:43;6.75;75.50
77056;SHT30;67471;44.918;8.614;2024-02-15T03:33:47;6.79;75.52
77056;SHT30;67471;44.918;8.614;2024-02-15T03:36:52;6.77;75.19
77056;SHT30;67471;44.918;8.614;2024-02-15T03:39:57;6.74;75.14
77056;SHT30;67471;44.918;8.614;2024-02-15T03:43:00;6.79;74.90
77056;SHT30;67471;44.918;8.614;2024-02-15T03:46:03;6.70;75.19
77056;SHT30;67471;44.918;8.614;2024-02-15T03:49:06;6.79;74.77
77056;SHT30;67471;44.918;8.614;2024-02-15T03:52:11;6.64;75.71
77056;SHT30;67471;44.918;8.614;2024-02-15T03:55:14;6.61;76.02
77056;SHT30;67471;44.918;8.614;2024-02-15T03:58:18;6.67;75.29
77056;SHT30;67471;44.918;8.614;2024-02-15T04:01:22;6.54;75.84
77056;SHT30;67471;44.918;8.614;2024-02-15T04:04:26;6.50;75.86
77056;SHT30;67471;44.918;8.614;2024-02-15T04:07:30;6.52;75.63
77056;SHT30;67471;44.918;8.614;2024-02-15T04:10:33;6.42;75.35
77056;SHT30;67471;44.918;8.614;2024-02-15T04:13:40;6.48;75.39
77056;SHT30;67471;44.918;8.614;2024-02-15T04:16:43;6.36;75.56
77056;SHT30;67471;44.918;8.614;2024-02-15T04:19:48;6.31;75.38
77056;SHT30;67471;44.918;8.614;2024-02-15T04:22:53;6.20;75.37
77056;SHT30;67471;44.918;8.614;2024-02-15T04:25:59;6.31;75.32
77056;SHT30;67471;44.918;8.614;2024-02-15T04:29:02;6.29;75.12
77056;SHT30;67471;44.918;8.614;2024-02-15T04:32:10;6.21;75.43
77056;SHT30;67471;44.918;8.614;2024-02-15T04:35:14;6.10;75.98
77056;SHT30;67471;44.918;8.614;2024-02-15T04:38:17;6.14;75.60
77056;SHT30;67471;44.918;8.614;2024-02-15T04:41:22;6.16;75.71
77056;SHT30;67471;44.918;8.614;2024-02-15T04:44:28;6.10;75.63
77056;SHT30;67471;44.918;8.614;2024-02-15T04:47:31;6.03;75.42
77056;SHT30;67471;44.918;8.614;2024-02-15T04:50:35;6.00;75.89
77056;SHT30;67471;44.918;8.614;2024-02-15T04:53:39;5.93;76.21
77056;SHT30;67471;44.918;8.614;2024-02-15T04:56:44;5.99;75.67
77056;SHT30;67471;44.918;8.614;2024-02-15T04:59:49;6.02;76.12
77056;SHT30;67471;44.918;8.614;2024-02-15T05:02:53;6.05;76.15
77056;SHT30;67471;44.918;8.614;2024-02-15T05:05:56;5.98;76.46
77056;SHT30;67471;44.918;8.614;2024-02-15T05:09:00;6.05;76.43
77056;SHT30;67471;44.918;8.614;2024-02-15T05:12:03;6.10;76.23
77056;SHT30;67471;44.918;8.614;2024-02-15T05:15:07;6.11;76.29
77056;SHT30;67471;44.918;8.614;2024-02-15T05:18:13;6.09;76.36
77056;SHT30;67471;44.918;8.614;2024-02-15T05:21:17;6.14;75.78
77056;SHT30;67471;44.918;8.614;2024-02-15T05:24:20;6.09;76.05
77056;SHT30;67471;44.918;8.614;2024-02-15T05:27:23;6.10;76.42
77056;SHT30;67471;44.918;8.614;2024-02-15T05:30:26;6.06;75.86
77056;SHT30;67471;44.918;8.614;2024-02-15T05:33:30;6.10;75.60
77056;SHT30;67471;44.918;8.614;2024-02-15T05:36:35;6.06;75.14
77056;SHT30;67471;44.918;8.614;2024-02-15T05:39:38;5.75;75.60
77056;SHT30;67471;44.918;8.614;2024-02-15T05:42:43;5.85;75.03
77056;SHT30;67471;44.918;8.614;2024-02-15T05:45:49;5.75;75.15
77056;SHT30;67471;44.918;8.614;2024-02-15T05:48:54;5.65;75.51
77056;SHT30;67471;44.918;8.614;2024-02-15T05:51:58;5.69;75.38
77056;SHT30;67471;44.918;8.614;2024-02-15T05:55:01;5.55;75.23
77056;SHT30;67471;44.918;8.614;2024-02-15T05:58:05;5.55;75.72
77056;SHT30;67471;44.918;8.614;2024-02-15T06:01:11;5.47;75.93
77056;SHT30;67471;44.918;8.614;2024-02-15T06:04:16;5.37;76.40
77056;SHT30;67471;44.918;8.614;2024-02-15T06:07:20;5.49;76.47
77056;SHT30;67471;44.918;8.614;2024-02-15T06:10:23;5.38;76.48
77056;SHT30;67471;44.918;8.614;2024-02-15T06:13:26;5.37;76.98
77056;SHT30;67471;44.918;8.614;2024-02-15T06:16:30;5.45;76.25
77056;SHT30;67471;44.918;8.614;2024-02-15T06:19:33;5.41;76.93
77056;SHT30;67471;44.918;8.614;2024-02-15T06:22:37;5.58;76.78
77056;SHT30;67471;44.918;8.614;2024-02-15T06:25:41;5.59;76.37
77056;SHT30;67471;44.918;8.614;2024-02-15T06:28:44;5.65;76.30
77056;SHT30;67471;44.918;8.614;2024-02-15T06:32:06;5.66;76.35
77056;SHT30;67471;44.918;8.614;2024-02-15T06:35:29;5.62;76.44
77056;SHT30;67471;44.918;8.614;2024-02-15T06:38:51;5.63;75.95
77056;SHT30;67471;44.918;8.614;2024-02-15T06:42:16;5.66;76.04
77056;SHT30;67471;44.918;8.614;2024-02-15T06:45:23;5.75;75.89
77056;SHT30;67471;44.918;8.614;2024-02-15T06:48:28;5.83;75.92
77056;SHT30;67471;44.918;8.614;2024-02-15T06:51:32;5.90;75.52
77056;SHT30;67471;44.918;8.614;2024-02-15T06:54:35;5.86;75.43
77056;SHT30;67471;44.918;8.614;2024-02-15T06:57:39;5.85;75.41
77056;SHT30;67471;44.918;8.614;2024-02-15T07:00:45;5.99;75.07
77056;SHT30;67471;44.918;8.614;2024-02-15T07:03:49;5.79;76.29
77056;SHT30;67471;44.918;8.614;2024-02-15T07:06:53;5.92;75.88
77056;SHT30;67471;44.918;8.614;2024-02-15T07:10:00;6.09;75.38
77056;SHT30;67471;44.918;8.614;2024-02-15T07:13:06;6.40;74.59
77056;SHT30;67471;44.918;8.614;2024-02-15T07:16:10;6.84;73.47
77056;SHT30;67471;44.918;8.614;2024-02-15T07:19:15;7.50;71.39
77056;SHT30;67471;44.918;8.614;2024-02-15T07:22:18;8.19;69.00
77056;SHT30;67471;44.918;8.614;2024-02-15T07:25:21;9.20;65.71
77056;SHT30;67471;44.918;8.614;2024-02-15T07:28:24;10.99;60.76
77056;SHT30;67471;44.918;8.614;2024-02-15T07:31:29;12.46;55.13
77056;SHT30;67471;44.918;8.614;2024-02-15T07:34:33;13.52;52.68
77056;SHT30;67471;44.918;8.614;2024-02-15T07:37:36;14.48;49.30
77056;SHT30;67471;44.918;8.614;2024-02-15T07:40:39;14.31;49.18
77056;SHT30;67471;44.918;8.614;2024-02-15T07:43:43;15.77;46.65
77056;SHT30;67471;44.918;8.614;2024-02-15T07:46:47;16.56;45.10
77056;SHT30;67471;44.918;8.614;2024-02-15T07:49:51;17.68;42.44
77056;SHT30;67471;44.918;8.614;2024-02-15T07:52:54;19.09;39.73
77056;SHT30;67471;44.918;8.614;2024-02-15T07:55:58;19.25;39.17
77056;SHT30;67471;44.918;8.614;2024-02-15T07:59:01;18.67;39.83
77056;SHT30;67471;44.918;8.614;2024-02-15T08:02:06;17.79;41.85
77056;SHT30;67471;44.918;8.614;2024-02-15T08:05:09;18.27;41.05
77056;SHT30;67471;44.918;8.614;2024-02-15T08:08:13;17.68;42.58
77056;SHT30;67471;44.918;8.614;2024-02-15T08:11:17;16.96;44.10
77056;SHT30;67471;44.918;8.614;2024-02-15T08:14:20;16.58;45.01
77056;SHT30;67471;44.918;8.614;2024-02-15T08:17:24;16.45;44.61
77056;SHT30;67471;44.918;8.614;2024-02-15T08:20:29;16.17;45.67
77056;SHT30;67471;44.918;8.614;2024-02-15T08:23:35;15.59;46.91
77056;SHT30;67471;44.918;8.614;2024-02-15T08:26:39;15.08;48.95
77056;SHT30;67471;44.918;8.614;2024-02-15T08:29:42;15.36;48.18
77056;SHT30;67471;44.918;8.614;2024-02-15T08:32:46;15.15;49.01
77056;SHT30;67471;44.918;8.614;2024-02-15T08:35:51;14.77;49.84
77056;SHT30;67471;44.918;8.614;2024-02-15T08:38:55;14.52;50.34
77056;SHT30;67471;44.918;8.614;2024-02-15T08:41:58;14.82;50.52
77056;SHT30;67471;44.918;8.614;2024-02-15T08:45:02;15.49;48.51
77056;SHT30;67471;44.918;8.614;2024-02-15T08:48:05;15.70;48.36
77056;SHT30;67471;44.918;8.614;2024-02-15T08:51:08;16.01;47.83
77056;SHT30;67471;44.918;8.614;2024-02-15T08:54:12;16.24;47.21
77056;SHT30;67471;44.918;8.614;2024-02-15T08:57:15;17.06;44.90
77056;SHT30;67471;44.918;8.614;2024-02-15T09:00:19;17.03;45.38
77056;SHT30;67471;44.918;8.614;2024-02-15T09:03:23;16.53;46.71
77056;SHT30;67471;44.918;8.614;2024-02-15T09:06:27;16.28;47.45
77056;SHT30;67471;44.918;8.614;2024-02-15T09:09:30;16.36;47.05
77056;SHT30;67471;44.918;8.614;2024-02-15T09:12:34;16.25;47.53
77056;SHT30;67471;44.918;8.614;2024-02-15T09:15:37;16.12;47.65
77056;SHT30;67471;44.918;8.614;2024-02-15T09:18:42;16.58;47.30
77056;SHT30;67471;44.918;8.614;2024-02-15T09:21:48;16.48;47.59
77056;SHT30;67471;44.918;8.614;2024-02-15T09:24:51;15.97;48.44
77056;SHT30;67471;44.918;8.614;2024-02-15T09:27:55;15.33;50.56
77056;SHT30;67471;44.918;8.614;2024-02-15T09:30:58;15.15;50.70
77056;SHT30;67471;44.918;8.614;2024-02-15T09:34:04;14.80;52.06
77056;SHT30;67471;44.918;8.614;2024-02-15T09:37:09;14.61;53.06
77056;SHT30;67471;44.918;8.614;2024-02-15T09:40:13;14.98;52.40
77056;SHT30;67471;44.918;8.614;2024-02-15T09:43:18;15.05;52.51
77056;SHT30;67471;44.918;8.614;2024-02-15T09:46:22;14.96;52.46
77056;SHT30;67471;44.918;8.614;2024-02-15T09:49:26;15.01;52.57
77056;SHT30;67471;44.918;8.614;2024-02-15T09:52:30;14.98;53.17
77056;SHT30;67471;44.918;8.614;2024-02-15T09:55:35;14.80;53.27
77056;SHT30;67471;44.918;8.614;2024-02-15T09:58:39;14.52;54.09
77056;SHT30;67471;44.918;8.614;2024-02-15T10:01:43;14.33;54.82
77056;SHT30;67471;44.918;8.614;2024-02-15T10:04:50;14.44;55.44
77056;SHT30;67471;44.918;8.614;2024-02-15T10:07:54;14.70;54.10
77056;SHT30;67471;44.918;8.614;2024-02-15T10:11:07;14.70;54.45
77056;SHT30;67471;44.918;8.614;2024-02-15T10:14:11;14.47;55.18
77056;SHT30;67471;44.918;8.614;2024-02-15T10:17:15;14.38;54.70
77056;SHT30;67471;44.918;8.614;2024-02-15T10:20:20;14.30;54.72
77056;SHT30;67471;44.918;8.614;2024-02-15T10:23:23;13.92;55.79
77056;SHT30;67471;44.918;8.614;2024-02-15T10:26:26;13.68;56.61
77056;SHT30;67471;44.918;8.614;2024-02-15T10:29:31;13.45;57.57
77056;SHT30;67471;44.918;8.614;2024-02-15T10:32:35;13.42;57.81
77056;SHT30;67471;44.918;8.614;2024-02-15T10:35:38;13.30;58.38
77056;SHT30;67471;44.918;8.614;2024-02-15T10:38:42;12.91;59.74
77056;SHT30;67471;44.918;8.614;2024-02-15T10:41:47;13.38;58.76
77056;SHT30;67471;44.918;8.614;2024-02-15T10:44:50;13.25;59.46
77056;SHT30;67471;44.918;8.614;2024-02-15T10:47:54;13.32;59.30
77056;SHT30;67471;44.918;8.614;2024-02-15T10:50:59;13.47;58.79
77056;SHT30;67471;44.918;8.614;2024-02-15T10:54:04;13.42;59.10
77056;SHT30;67471;44.918;8.614;2024-02-15T10:57:10;13.51;58.58
77056;SHT30;67471;44.918;8.614;2024-02-15T11:00:16;13.38;59.15
77056;SHT30;67471;44.918;8.614;2024-02-15T11:03:25;13.76;57.71
77056;SHT30;67471;44.918;8.614;2024-02-15T11:06:29;14.02;57.58
77056;SHT30;67471;44.918;8.614;2024-02-15T11:09:33;14.36;56.55
77056;SHT30;67471;44.918;8.614;2024-02-15T11:12:37;14.31;55.41
77056;SHT30;67471;44.918;8.614;2024-02-15T11:15:42;14.64;54.80
77056;SHT30;67471;44.918;8.614;2024-02-15T11:18:48;14.77;54.22
77056;SHT30;67471;44.918;8.614;2024-02-15T11:21:55;14.70;54.36
77056;SHT30;67471;44.918;8.614;2024-02-15T11:25:06;14.48;54.93
77056;SHT30;67471;44.918;8.614;2024-02-15T11:31:52;14.91;54.65
77056;SHT30;67471;44.918;8.614;2024-02-15T11:34:51;15.38;53.11
77056;SHT30;67471;44.918;8.614;2024-02-15T11:38:12;15.63;53.09
77056;SHT30;67471;44.918;8.614;2024-02-15T11:41:30;15.86;53.00
77056;SHT30;67471;44.918;8.614;2024-02-15T11:44:34;15.71;52.91
77056;SHT30;67471;44.918;8.614;2024-02-15T11:47:39;15.97;52.68
77056;SHT30;67471;44.918;8.614;2024-02-15T11:50:45;15.69;53.61
77056;SHT30;67471;44.918;8.614;2024-02-15T11:53:59;16.14;52.84
77056;SHT30;67471;44.918;8.614;2024-02-15T11:57:03;16.31;52.41
77056;SHT30;67471;44.918;8.614;2024-02-15T12:00:23;16.29;52.38
77056;SHT30;67471;44.918;8.614;2024-02-15T12:03:45;16.45;51.28
77056;SHT30;67471;44.918;8.614;2024-02-15T12:07:14;16.44;49.42
77056;SHT30;67471;44.918;8.614;2024-02-15T12:10:36;16.38;49.61
77056;SHT30;67471;44.918;8.614;2024-02-15T12:13:58;16.55;49.81
77056;SHT30;67471;44.918;8.614;2024-02-15T12:17:23;16.62;50.25
77056;SHT30;67471;44.918;8.614;2024-02-15T12:20:45;16.63;50.56
77056;SHT30;67471;44.918;8.614;2024-02-15T12:23:48;16.58;51.20
77056;SHT30;67471;44.918;8.614;2024-02-15T12:26:59;16.38;52.20
77056;SHT30;67471;44.918;8.614;2024-02-15T12:30:04;16.41;52.28
77056;SHT30;67471;44.918;8.614;2024-02-15T12:33:13;16.38;52.42
77056;SHT30;67471;44.918;8.614;2024-02-15T12:36:22;16.05;53.11
77056;SHT30;67471;44.918;8.614;2024-02-15T12:39:25;16.15;52.59
77056;SHT30;67471;44.918;8.614;2024-02-15T12:42:31;16.15;52.50
77056;SHT30;67471;44.918;8.614;2024-02-15T12:45:35;16.18;51.13
77056;SHT30;67471;44.918;8.614;2024-02-15T12:48:40;16.08;51.34
77056;SHT30;67471;44.918;8.614;2024-02-15T12:51:49;15.67;51.50
77056;SHT30;67471;44.918;8.614;2024-02-15T12:55:06;15.86;51.19
77056;SHT30;67471;44.918;8.614;2024-02-15T12:58:14;16.11;50.73
77056;SHT30;67471;44.918;8.614;2024-02-15T13:01:19;16.19;50.57
77056;SHT30;67471;44.918;8.614;2024-02-15T13:04:23;16.11;51.10
77056;SHT30;67471;44.918;8.614;2024-02-15T13:07:28;16.17;50.15
77056;SHT30;67471;44.918;8.614;2024-02-15T13:10:32;16.45;47.81
77056;SHT30;67471;44.918;8.614;2024-02-15T13:13:35;16.26;47.74
77056;SHT30;67471;44.918;8.614;2024-02-15T13:16:38;16.25;47.53
77056;SHT30;67471;44.918;8.614;2024-02-15T13:19:47;16.02;47.49
77056;SHT30;67471;44.918;8.614;2024-02-15T13:22:52;16.19;47.15
77056;SHT30;67471;44.918;8.614;2024-02-15T13:25:56;16.28;47.54
77056;SHT30;67471;44.918;8.614;2024-02-15T13:29:07;15.98;49.99
77056;SHT30;67471;44.918;8.614;2024-02-15T13:32:10;15.90;50.98
77056;SHT30;67471;44.918;8.614;2024-02-15T13:35:15;14.92;54.08
77056;SHT30;67471;44.918;8.614;2024-02-15T13:38:21;15.05;54.43
77056;SHT30;67471;44.918;8.614;2024-02-15T13:41:28;15.12;54.66
77056;SHT30;67471;44.918;8.614;2024-02-15T13:44:32;14.29;59.38
77056;SHT30;67471;44.918;8.614;2024-02-15T13:47:36;14.27;62.10
77056;SHT30;67471;44.918;8.614;2024-02-15T13:50:40;14.06;64.88
77056;SHT30;67471;44.918;8.614;2024-02-15T13:53:43;14.13;65.05
77056;SHT30;67471;44.918;8.614;2024-02-15T13:56:47;14.42;64.60
77056;SHT30;67471;44.918;8.614;2024-02-15T13:59:50;14.71;63.84
77056;SHT30;67471;44.918;8.614;2024-02-15T14:02:54;14.72;63.85
77056;SHT30;67471;44.918;8.614;2024-02-15T14:05:58;14.77;63.96
77056;SHT30;67471;44.918;8.614;2024-02-15T14:09:02;14.48;63.74
77056;SHT30;67471;44.918;8.614;2024-02-15T14:12:05;14.41;64.63
77056;SHT30;67471;44.918;8.614;2024-02-15T14:15:09;14.67;63.79
77056;SHT30;67471;44.918;8.614;2024-02-15T14:18:13;14.93;62.61
77056;SHT30;67471;44.918;8.614;2024-02-15T14:21:17;14.29;63.68
77056;SHT30;67471;44.918;8.614;2024-02-15T14:24:21;14.23;64.50
77056;SHT30;67471;44.918;8.614;2024-02-15T14:27:26;14.19;64.03
77056;SHT30;67471;44.918;8.614;2024-02-15T14:30:30;14.38;63.54
77056;SHT30;67471;44.918;8.614;2024-02-15T14:33:51;14.34;63.33
77056;SHT30;67471;44.918;8.614;2024-02-15T14:36:55;14.45;62.66
77056;SHT30;67471;44.918;8.614;2024-02-15T14:40:00;14.26;63.04
77056;SHT30;67471;44.918;8.614;2024-02-15T14:43:04;14.20;63.14
77056;SHT30;67471;44.918;8.614;2024-02-15T14:46:07;14.23;63.11
77056;SHT30;67471;44.918;8.614;2024-02-15T14:49:11;14.33;62.81
77056;SHT30;67471;44.918;8.614;2024-02-15T14:52:14;13.99;63.77
77056;SHT30;67471;44.918;8.614;2024-02-15T14:55:19;14.05;63.37
77056;SHT30;67471;44.918;8.614;2024-02-15T14:58:23;14.06;63.31
77056;SHT30;67471;44.918;8.614;2024-02-15T15:01:27;13.98;62.87
77056;SHT30;67471;44.918;8.614;2024-02-15T15:04:31;13.73;63.95
77056;SHT30;67471;44.918;8.614;2024-02-15T15:07:50;13.73;64.43
77056;SHT30;67471;44.918;8.614;2024-02-15T15:11:11;13.83;63.89
77056;SHT30;67471;44.918;8.614;2024-02-15T15:14:34;13.83;63.60
77056;SHT30;67471;44.918;8.614;2024-02-15T15:17:37;13.71;63.77
77056;SHT30;67471;44.918;8.614;2024-02-15T15:20:41;13.78;63.72
77056;SHT30;67471;44.918;8.614;2024-02-15T15:23:45;13.76;63.56
77056;SHT30;67471;44.918;8.614;2024-02-15T15:26:48;13.73;63.63
77056;SHT30;67471;44.918;8.614;2024-02-15T15:29:52;13.73;64.16
77056;SHT30;67471;44.918;8.614;2024-02-15T15:32:55;13.95;63.27
77056;SHT30;67471;44.918;8.614;2024-02-15T15:36:00;14.05;63.18
77056;SHT30;67471;44.918;8.614;2024-02-15T15:39:03;13.89;64.00
77056;SHT30;67471;44.918;8.614;2024-02-15T15:42:11;13.87;64.12
77056;SHT30;67471;44.918;8.614;2024-02-15T15:45:16;13.96;63.75
77056;SHT30;67471;44.918;8.614;2024-02-15T15:48:20;14.02;63.90
77056;SHT30;67471;44.918;8.614;2024-02-15T15:51:23;13.76;64.55
77056;SHT30;67471;44.918;8.614;2024-02-15T15:54:27;13.73;65.02
77056;SHT30;67471;44.918;8.614;2024-02-15T15:57:30;13.65;65.36
77056;SHT30;67471;44.918;8.614;2024-02-15T16:00:33;13.54;65.59
77056;SHT30;67471;44.918;8.614;2024-02-15T16:03:38;13.76;65.12
77056;SHT30;67471;44.918;8.614;2024-02-15T16:06:43;13.79;65.17
77056;SHT30;67471;44.918;8.614;2024-02-15T16:09:46;13.99;64.51
77056;SHT30;67471;44.918;8.614;2024-02-15T16:12:51;13.71;65.61
77056;SHT30;67471;44.918;8.614;2024-02-15T16:15:55;13.58;66.20
77056;SHT30;67471;44.918;8.614;2024-02-15T16:19:00;13.61;66.37
77056;SHT30;67471;44.918;8.614;2024-02-15T16:22:04;13.42;66.94
77056;SHT30;67471;44.918;8.614;2024-02-15T16:25:08;13.38;67.32
77056;SHT30;67471;44.918;8.614;2024-02-15T16:28:14;13.45;66.94
77056;SHT30;67471;44.918;8.614;2024-02-15T16:31:18;13.63;66.52
77056;SHT30;67471;44.918;8.614;2024-02-15T16:34:22;13.61;66.38
77056;SHT30;67471;44.918;8.614;2024-02-15T16:37:25;13.37;67.19
77056;SHT30;67471;44.918;8.614;2024-02-15T16:40:29;13.54;66.74
77056;SHT30;67471;44.918;8.614;2024-02-15T16:43:33;13.44;67.09
77056;SHT30;67471;44.918;8.614;2024-02-15T16:46:37;13.73;66.11
77056;SHT30;67471;44.918;8.614;2024-02-15T16:49:40;13.76;66.04
77056;SHT30;67471;44.918;8.614;2024-02-15T16:52:43;13.76;66.11
77056;SHT30;67471;44.918;8.614;2024-02-15T16:55:47;13.82;65.81
77056;SHT30;67471;44.918;8.614;2024-02-15T16:58:50;13.82;65.85
77056;SHT30;67471;44.918;8.614;2024-02-15T17:01:56;13.86;65.54
77056;SHT30;67471;44.918;8.614;2024-02-15T17:04:59;13.83;65.48
77056;SHT30;67471;44.918;8.614;2024-02-15T17:08:03;13.82;65.48
77056;SHT30;67471;44.918;8.614;2024-02-15T17:11:09;13.82;65.49
77056;SHT30;67471;44.918;8.614;2024-02-15T17:14:13;13.89;65.28
77056;SHT30;67471;44.918;8.614;2024-02-15T17:17:19;13.86;65.39
77056;SHT30;67471;44.918;8.614;2024-02-15T17:20:22;13.61;66.16
77056;SHT30;67471;44.918;8.614;2024-02-15T17:23:26;13.51;66.62
77056;SHT30;67471;44.918;8.614;2024-02-15T17:26:29;13.62;66.31
77056;SHT30;67471;44.918;8.614;2024-02-15T17:29:33;13.66;66.11
77056;SHT30;67471;44.918;8.614;2024-02-15T17:32:36;13.72;66.17
77056;SHT30;67471;44.918;8.614;2024-02-15T17:35:40;13.66;66.41
77056;SHT30;67471;44.918;8.614;2024-02-15T17:38:44;13.63;66.66
77056;SHT30;67471;44.918;8.614;2024-02-15T17:41:47;13.54;66.98
77056;SHT30;67471;44.918;8.614;2024-02-15T17:44:50;13.52;67.22
77056;SHT30;67471;44.918;8.614;2024-02-15T17:47:55;13.47;67.39
77056;SHT30;67471;44.918;8.614;2024-02-15T17:50:58;13.42;67.74
77056;SHT30;67471;44.918;8.614;2024-02-15T17:54:02;13.47;67.72
77056;SHT30;67471;44.918;8.614;2024-02-15T17:57:05;13.40;67.92
77056;SHT30;67471;44.918;8.614;2024-02-15T18:00:10;13.40;67.96
77056;SHT30;67471;44.918;8.614;2024-02-15T18:03:18;13.27;68.43
77056;SHT30;67471;44.918;8.614;2024-02-15T18:06:23;13.38;68.29
77056;SHT30;67471;44.918;8.614;2024-02-15T18:09:26;13.34;68.38
77056;SHT30;67471;44.918;8.614;2024-02-15T18:12:32;13.31;68.41
77056;SHT30;67471;44.918;8.614;2024-02-15T18:15:35;13.27;68.34
77056;SHT30;67471;44.918;8.614;2024-02-15T18:18:45;13.22;68.39
77056;SHT30;67471;44.918;8.614;2024-02-15T18:21:48;13.15;68.50
77056;SHT30;67471;44.918;8.614;2024-02-15T18:24:52;13.17;68.37
77056;SHT30;67471;44.918;8.614;2024-02-15T18:27:55;13.17;68.22
77056;SHT30;67471;44.918;8.614;2024-02-15T18:30:59;13.07;68.62
77056;SHT30;67471;44.918;8.614;2024-02-15T18:34:03;13.11;68.38
77056;SHT30;67471;44.918;8.614;2024-02-15T18:37:10;13.11;68.49
77056;SHT30;67471;44.918;8.614;2024-02-15T18:40:13;12.91;69.14
77056;SHT30;67471;44.918;8.614;2024-02-15T18:43:18;12.93;69.10
77056;SHT30;67471;44.918;8.614;2024-02-15T18:46:22;12.91;69.15
77056;SHT30;67471;44.918;8.614;2024-02-15T18:49:26;12.81;69.55
77056;SHT30;67471;44.918;8.614;2024-02-15T18:52:30;12.84;69.33
77056;SHT30;67471;44.918;8.614;2024-02-15T18:55:33;12.83;69.50
77056;SHT30;67471;44.918;8.614;2024-02-15T18:58:37;12.77;69.66
77056;SHT30;67471;44.918;8.614;2024-02-15T19:01:40;12.79;69.66
77056;SHT30;67471;44.918;8.614;2024-02-15T19:04:44;12.72;70.13
77056;SHT30;67471;44.918;8.614;2024-02-15T19:07:48;12.64;70.35
77056;SHT30;67471;44.918;8.614;2024-02-15T19:10:52;12.57;70.58
77056;SHT30;67471;44.918;8.614;2024-02-15T19:13:56;12.55;70.75
77056;SHT30;67471;44.918;8.614;2024-02-15T19:17:00;12.41;71.05
77056;SHT30;67471;44.918;8.614;2024-02-15T19:20:04;12.42;71.16
77056;SHT30;67471;44.918;8.614;2024-02-15T19:23:10;12.32;71.36
77056;SHT30;67471;44.918;8.614;2024-02-15T19:26:14;12.31;71.51
77056;SHT30;67471;44.918;8.614;2024-02-15T19:29:17;12.22;71.80
77056;SHT30;67471;44.918;8.614;2024-02-15T19:32:22;12.11;72.07
77056;SHT30;67471;44.918;8.614;2024-02-15T19:35:25;11.98;72.50
77056;SHT30;67471;44.918;8.614;2024-02-15T19:38:29;12.02;72.43
77056;SHT30;67471;44.918;8.614;2024-02-15T19:41:33;12.06;72.20